PWSweather.com
Personal Weather Stations
Station Observations
MENWDWX1
Menstrie, ScotlandGB

MenstrieScotlandGB

Lat: 56.148322, Lon: -3.85483

Elevation: 62

Station Type: Davis Vantage Pro 2

High Low Average
Temperature 38.7°F3.7°C 18.0°F-7.8°C 28.5°F-1.9°C
Dew Point 31.8°F-0.1°C 13.2°F-10.4°C 22.6°F-5.2°C
Winds 12.7 mph 20.4 kmh Calm Calm 5.0 mph ENE8.0 kmh ENE
Wind Gusts 19.6 mph31.5 kmh -- 7.0 mph11.3 kmh
Humidity 82% 75% 79%
Pressure 30.45 in1031.2 mb 29.98 in1015.2 mb -
Precipitation 0.08 in2.0 mm - -
Hour Temp Dew Point Humidity Winds Wind Gusts Pressure Precip Precip Rate Daily Precip Total
12:00 AM 21.4°F-5.9°C 16.2°F-8.8°C 80% Calm Calm -- 30.45 in1031.2 mb - 0.00 in0.0 mm 0.00 in0.0 mm
12:05 AM 21.3°F-5.9°C 16.1°F-8.8°C 80% Calm Calm -- 30.45 in1031.2 mb - 0.00 in0.0 mm 0.00 in0.0 mm
12:10 AM 21.4°F-5.9°C 16.2°F-8.8°C 80% Calm Calm -- 30.45 in1031.2 mb - 0.00 in0.0 mm 0.00 in0.0 mm
12:15 AM 21.6°F-5.8°C 16.4°F-8.7°C 80% Calm Calm -- 30.44 in1030.8 mb - 0.00 in0.0 mm 0.00 in0.0 mm
12:20 AM 21.6°F-5.8°C 16.4°F-8.7°C 80% Calm Calm -- 30.44 in1030.8 mb - 0.00 in0.0 mm 0.00 in0.0 mm
12:25 AM 21.5°F-5.8°C 16.3°F-8.7°C 80% Calm Calm -- 30.44 in1030.8 mb - 0.00 in0.0 mm 0.00 in0.0 mm
12:30 AM 21.3°F-5.9°C 16.1°F-8.8°C 80% Calm Calm -- 30.44 in1030.8 mb - 0.00 in0.0 mm 0.00 in0.0 mm
12:35 AM 21.1°F-6.1°C 15.9°F-8.9°C 80% Calm Calm -- 30.44 in1030.8 mb - 0.00 in0.0 mm 0.00 in0.0 mm
12:40 AM 21.1°F-6.1°C 15.9°F-8.9°C 80% Calm Calm -- 30.44 in1030.8 mb - 0.00 in0.0 mm 0.00 in0.0 mm
12:45 AM 20.9°F-6.2°C 15.7°F-9.1°C 80% Calm Calm -- 30.43 in1030.5 mb - 0.00 in0.0 mm 0.00 in0.0 mm
12:50 AM 20.9°F-6.2°C 15.7°F-9.1°C 80% Calm Calm -- 30.43 in1030.5 mb - 0.00 in0.0 mm 0.00 in0.0 mm
12:55 AM 20.8°F-6.2°C 15.6°F-9.1°C 80% Calm Calm -- 30.43 in1030.5 mb - 0.00 in0.0 mm 0.00 in0.0 mm
01:00 AM 20.7°F-6.3°C 15.5°F-9.2°C 80% Calm Calm -- 30.43 in1030.5 mb - 0.00 in0.0 mm 0.00 in0.0 mm
01:05 AM 20.7°F-6.3°C 15.5°F-9.2°C 80% Calm Calm -- 30.43 in1030.5 mb - 0.00 in0.0 mm 0.00 in0.0 mm
01:10 AM 20.7°F-6.3°C 15.5°F-9.2°C 80% Calm Calm -- 30.43 in1030.5 mb - 0.00 in0.0 mm 0.00 in0.0 mm
01:15 AM 20.6°F-6.3°C 15.7°F-9.1°C 81% Calm Calm -- 30.43 in1030.5 mb - 0.00 in0.0 mm 0.00 in0.0 mm
01:20 AM 20.7°F-6.3°C 15.8°F-9.0°C 81% Calm Calm -- 30.43 in1030.5 mb - 0.00 in0.0 mm 0.00 in0.0 mm
01:25 AM 20.6°F-6.3°C 15.7°F-9.1°C 81% Calm Calm -- 30.43 in1030.5 mb - 0.00 in0.0 mm 0.00 in0.0 mm
01:30 AM 20.6°F-6.3°C 15.7°F-9.1°C 81% Calm Calm -- 30.43 in1030.5 mb - 0.00 in0.0 mm 0.00 in0.0 mm
01:35 AM 20.7°F-6.3°C 15.8°F-9.0°C 81% Calm Calm -- 30.43 in1030.5 mb - 0.00 in0.0 mm 0.00 in0.0 mm
01:40 AM 20.8°F-6.2°C 15.9°F-8.9°C 81% Calm Calm -- 30.43 in1030.5 mb - 0.00 in0.0 mm 0.00 in0.0 mm
01:45 AM 20.8°F-6.2°C 15.9°F-8.9°C 81% Calm Calm -- 30.43 in1030.5 mb - 0.00 in0.0 mm 0.00 in0.0 mm
01:50 AM 20.6°F-6.3°C 15.7°F-9.1°C 81% Calm Calm -- 30.43 in1030.5 mb - 0.00 in0.0 mm 0.00 in0.0 mm
01:55 AM 20.3°F-6.5°C 15.4°F-9.2°C 81% Calm Calm -- 30.43 in1030.5 mb - 0.00 in0.0 mm 0.00 in0.0 mm
02:00 AM 20.1°F-6.6°C 15.0°F-9.4°C 80% Calm Calm -- 30.43 in1030.5 mb - 0.00 in0.0 mm 0.00 in0.0 mm
02:05 AM 20.0°F-6.7°C 14.8°F-9.6°C 80% Calm Calm -- 30.42 in1030.1 mb - 0.00 in0.0 mm 0.00 in0.0 mm
02:10 AM 19.9°F-6.7°C 14.8°F-9.6°C 80% Calm Calm -- 30.42 in1030.1 mb - 0.00 in0.0 mm 0.00 in0.0 mm
02:15 AM 20.0°F-6.7°C 14.8°F-9.6°C 80% Calm Calm -- 30.42 in1030.1 mb - 0.00 in0.0 mm 0.00 in0.0 mm
02:20 AM 20.0°F-6.7°C 15.1°F-9.4°C 81% Calm Calm -- 30.42 in1030.1 mb - 0.00 in0.0 mm 0.00 in0.0 mm
02:25 AM 19.9°F-6.7°C 15.0°F-9.4°C 81% Calm Calm -- 30.43 in1030.5 mb - 0.00 in0.0 mm 0.00 in0.0 mm
02:30 AM 19.8°F-6.8°C 14.6°F-9.7°C 80% Calm Calm -- 30.42 in1030.1 mb - 0.00 in0.0 mm 0.00 in0.0 mm
02:35 AM 19.7°F-6.8°C 14.5°F-9.7°C 80% Calm Calm -- 30.43 in1030.5 mb - 0.00 in0.0 mm 0.00 in0.0 mm
02:40 AM 19.6°F-6.9°C 14.4°F-9.8°C 80% Calm Calm -- 30.42 in1030.1 mb - 0.00 in0.0 mm 0.00 in0.0 mm
02:45 AM 19.5°F-6.9°C 14.6°F-9.7°C 81% Calm Calm -- 30.42 in1030.1 mb - 0.00 in0.0 mm 0.00 in0.0 mm
02:50 AM 19.4°F-7.0°C 14.5°F-9.7°C 81% Calm Calm -- 30.42 in1030.1 mb - 0.00 in0.0 mm 0.00 in0.0 mm
02:55 AM 19.4°F-7.0°C 14.5°F-9.7°C 81% Calm Calm -- 30.42 in1030.1 mb - 0.00 in0.0 mm 0.00 in0.0 mm
03:00 AM 19.4°F-7.0°C 14.5°F-9.7°C 81% Calm Calm -- 30.42 in1030.1 mb - 0.00 in0.0 mm 0.00 in0.0 mm
03:05 AM 19.4°F-7.0°C 14.5°F-9.7°C 81% Calm Calm -- 30.42 in1030.1 mb - 0.00 in0.0 mm 0.00 in0.0 mm
03:10 AM 19.4°F-7.0°C 14.5°F-9.7°C 81% Calm Calm -- 30.41 in1029.8 mb - 0.00 in0.0 mm 0.00 in0.0 mm
03:15 AM 19.4°F-7.0°C 14.5°F-9.7°C 81% Calm Calm -- 30.41 in1029.8 mb - 0.00 in0.0 mm 0.00 in0.0 mm
03:20 AM 19.4°F-7.0°C 14.5°F-9.7°C 81% Calm Calm -- 30.41 in1029.8 mb - 0.00 in0.0 mm 0.00 in0.0 mm
03:25 AM 19.4°F-7.0°C 14.5°F-9.7°C 81% Calm Calm -- 30.41 in1029.8 mb - 0.00 in0.0 mm 0.00 in0.0 mm
03:30 AM 19.5°F-6.9°C 14.7°F-9.6°C 81% Calm Calm -- 30.41 in1029.8 mb - 0.00 in0.0 mm 0.00 in0.0 mm
03:35 AM 19.6°F-6.9°C 14.7°F-9.6°C 81% Calm Calm -- 30.41 in1029.8 mb - 0.00 in0.0 mm 0.00 in0.0 mm
03:40 AM 19.6°F-6.9°C 14.7°F-9.6°C 81% 2.3 mph N3.7 kmh N 3.5 mph5.6 kmh 30.41 in1029.8 mb - 0.00 in0.0 mm 0.00 in0.0 mm
03:45 AM 19.7°F-6.8°C 14.8°F-9.6°C 81% 1.2 mph N1.9 kmh N 2.3 mph3.7 kmh 30.41 in1029.8 mb - 0.00 in0.0 mm 0.00 in0.0 mm
03:50 AM 19.7°F-6.8°C 14.8°F-9.6°C 81% 1.2 mph N1.9 kmh N 2.3 mph3.7 kmh 30.41 in1029.8 mb - 0.00 in0.0 mm 0.00 in0.0 mm
03:55 AM 19.6°F-6.9°C 14.8°F-9.6°C 81% 2.3 mph N3.7 kmh N 3.5 mph5.6 kmh 30.41 in1029.8 mb - 0.00 in0.0 mm 0.00 in0.0 mm
04:00 AM 19.7°F-6.8°C 14.8°F-9.6°C 81% 2.3 mph N3.7 kmh N 2.3 mph3.7 kmh 30.40 in1029.5 mb - 0.00 in0.0 mm 0.00 in0.0 mm
04:05 AM 19.7°F-6.8°C 14.8°F-9.6°C 81% Calm Calm 2.3 mph3.7 kmh 30.41 in1029.8 mb - 0.00 in0.0 mm 0.00 in0.0 mm
04:10 AM 19.5°F-6.9°C 14.6°F-9.7°C 81% 1.2 mph N1.9 kmh N 1.2 mph1.9 kmh 30.40 in1029.5 mb - 0.00 in0.0 mm 0.00 in0.0 mm
04:15 AM 19.3°F-7.1°C 14.4°F-9.8°C 81% 1.2 mph N1.9 kmh N 2.3 mph3.7 kmh 30.40 in1029.5 mb - 0.00 in0.0 mm 0.00 in0.0 mm
04:20 AM 19.1°F-7.2°C 14.2°F-9.9°C 81% 2.3 mph N3.7 kmh N 3.5 mph5.6 kmh 30.40 in1029.5 mb - 0.00 in0.0 mm 0.00 in0.0 mm
04:25 AM 18.9°F-7.3°C 13.7°F-10.2°C 80% 1.2 mph N1.9 kmh N 2.3 mph3.7 kmh 30.40 in1029.5 mb - 0.00 in0.0 mm 0.00 in0.0 mm
04:30 AM 18.8°F-7.3°C 13.9°F-10.1°C 81% 1.2 mph N1.9 kmh N 2.3 mph3.7 kmh 30.40 in1029.5 mb - 0.00 in0.0 mm 0.00 in0.0 mm
04:35 AM 18.9°F-7.3°C 14.0°F-10.0°C 81% 1.2 mph N1.9 kmh N 2.3 mph3.7 kmh 30.40 in1029.5 mb - 0.00 in0.0 mm 0.00 in0.0 mm
04:40 AM 18.9°F-7.3°C 14.0°F-10.0°C 81% 1.2 mph N1.9 kmh N 2.3 mph3.7 kmh 30.40 in1029.5 mb - 0.00 in0.0 mm 0.00 in0.0 mm
04:45 AM 18.9°F-7.3°C 14.0°F-10.0°C 81% Calm Calm -- 30.40 in1029.5 mb - 0.00 in0.0 mm 0.00 in0.0 mm
04:50 AM 18.9°F-7.3°C 14.0°F-10.0°C 81% Calm Calm -- 30.40 in1029.5 mb - 0.00 in0.0 mm 0.00 in0.0 mm
04:55 AM 18.8°F-7.3°C 13.9°F-10.1°C 81% Calm Calm -- 30.40 in1029.5 mb - 0.00 in0.0 mm 0.00 in0.0 mm
05:00 AM 18.8°F-7.3°C 13.9°F-10.1°C 81% Calm Calm 1.2 mph1.9 kmh 30.39 in1029.1 mb - 0.00 in0.0 mm 0.00 in0.0 mm
05:05 AM 18.6°F-7.4°C 13.7°F-10.2°C 81% 1.2 mph N1.9 kmh N 2.3 mph3.7 kmh 30.39 in1029.1 mb - 0.00 in0.0 mm 0.00 in0.0 mm
05:10 AM 18.5°F-7.5°C 13.6°F-10.2°C 81% Calm Calm -- 30.40 in1029.5 mb - 0.00 in0.0 mm 0.00 in0.0 mm
05:15 AM 18.5°F-7.5°C 13.6°F-10.2°C 81% Calm Calm 1.2 mph1.9 kmh 30.40 in1029.5 mb - 0.00 in0.0 mm 0.00 in0.0 mm
05:20 AM 18.5°F-7.5°C 13.6°F-10.2°C 81% Calm Calm -- 30.40 in1029.5 mb - 0.00 in0.0 mm 0.00 in0.0 mm
05:25 AM 18.5°F-7.5°C 13.6°F-10.2°C 81% Calm Calm -- 30.39 in1029.1 mb - 0.00 in0.0 mm 0.00 in0.0 mm
05:30 AM 18.6°F-7.4°C 13.7°F-10.2°C 81% Calm Calm -- 30.39 in1029.1 mb - 0.00 in0.0 mm 0.00 in0.0 mm
05:35 AM 18.5°F-7.5°C 13.7°F-10.2°C 81% Calm Calm -- 30.39 in1029.1 mb - 0.00 in0.0 mm 0.00 in0.0 mm
05:40 AM 18.5°F-7.5°C 13.6°F-10.2°C 81% Calm Calm -- 30.39 in1029.1 mb - 0.00 in0.0 mm 0.00 in0.0 mm
05:45 AM 18.5°F-7.5°C 13.6°F-10.2°C 81% Calm Calm -- 30.39 in1029.1 mb - 0.00 in0.0 mm 0.00 in0.0 mm
05:50 AM 18.3°F-7.6°C 13.4°F-10.3°C 81% Calm Calm -- 30.39 in1029.1 mb - 0.00 in0.0 mm 0.00 in0.0 mm
05:55 AM 18.2°F-7.7°C 13.4°F-10.3°C 81% Calm Calm -- 30.38 in1028.8 mb - 0.00 in0.0 mm 0.00 in0.0 mm
06:00 AM 18.2°F-7.7°C 13.3°F-10.4°C 81% Calm Calm -- 30.38 in1028.8 mb - 0.00 in0.0 mm 0.00 in0.0 mm
06:05 AM 18.2°F-7.7°C 13.3°F-10.4°C 81% Calm Calm -- 30.38 in1028.8 mb - 0.00 in0.0 mm 0.00 in0.0 mm
06:10 AM 18.2°F-7.7°C 13.3°F-10.4°C 81% Calm Calm 2.3 mph3.7 kmh 30.38 in1028.8 mb - 0.00 in0.0 mm 0.00 in0.0 mm
06:15 AM 18.4°F-7.6°C 13.5°F-10.3°C 81% Calm Calm 1.2 mph1.9 kmh 30.38 in1028.8 mb - 0.00 in0.0 mm 0.00 in0.0 mm
06:20 AM 18.2°F-7.7°C 13.4°F-10.3°C 81% Calm Calm 1.2 mph1.9 kmh 30.38 in1028.8 mb - 0.00 in0.0 mm 0.00 in0.0 mm
06:25 AM 18.3°F-7.6°C 13.4°F-10.3°C 81% Calm Calm -- 30.38 in1028.8 mb - 0.00 in0.0 mm 0.00 in0.0 mm
06:30 AM 18.2°F-7.7°C 13.4°F-10.3°C 81% Calm Calm -- 30.38 in1028.8 mb - 0.00 in0.0 mm 0.00 in0.0 mm
06:35 AM 18.2°F-7.7°C 13.3°F-10.4°C 81% Calm Calm -- 30.38 in1028.8 mb - 0.00 in0.0 mm 0.00 in0.0 mm
06:40 AM 18.3°F-7.6°C 13.5°F-10.3°C 81% Calm Calm -- 30.38 in1028.8 mb - 0.00 in0.0 mm 0.00 in0.0 mm
06:45 AM 18.4°F-7.6°C 13.5°F-10.3°C 81% Calm Calm -- 30.38 in1028.8 mb - 0.00 in0.0 mm 0.00 in0.0 mm
06:50 AM 18.4°F-7.6°C 13.5°F-10.3°C 81% Calm Calm -- 30.38 in1028.8 mb - 0.00 in0.0 mm 0.00 in0.0 mm
06:55 AM 18.4°F-7.6°C 13.5°F-10.3°C 81% Calm Calm -- 30.38 in1028.8 mb - 0.00 in0.0 mm 0.00 in0.0 mm
07:00 AM 18.2°F-7.7°C 13.4°F-10.3°C 81% Calm Calm -- 30.38 in1028.8 mb - 0.00 in0.0 mm 0.00 in0.0 mm
07:05 AM 18.1°F-7.7°C 13.3°F-10.4°C 81% Calm Calm -- 30.38 in1028.8 mb - 0.00 in0.0 mm 0.00 in0.0 mm
07:10 AM 18.0°F-7.8°C 13.2°F-10.4°C 81% Calm Calm -- 30.38 in1028.8 mb - 0.00 in0.0 mm 0.00 in0.0 mm
07:15 AM 18.0°F-7.8°C 13.2°F-10.4°C 81% Calm Calm -- 30.38 in1028.8 mb - 0.00 in0.0 mm 0.00 in0.0 mm
07:20 AM 18.2°F-7.7°C 13.3°F-10.4°C 81% Calm Calm -- 30.38 in1028.8 mb - 0.00 in0.0 mm 0.00 in0.0 mm
07:25 AM 18.4°F-7.6°C 13.5°F-10.3°C 81% Calm Calm -- 30.38 in1028.8 mb - 0.00 in0.0 mm 0.00 in0.0 mm
07:30 AM 18.5°F-7.5°C 13.6°F-10.2°C 81% Calm Calm -- 30.38 in1028.8 mb - 0.00 in0.0 mm 0.00 in0.0 mm
07:35 AM 18.5°F-7.5°C 13.6°F-10.2°C 81% Calm Calm -- 30.38 in1028.8 mb - 0.00 in0.0 mm 0.00 in0.0 mm
07:40 AM 18.3°F-7.6°C 13.5°F-10.3°C 81% Calm Calm -- 30.37 in1028.4 mb - 0.00 in0.0 mm 0.00 in0.0 mm
07:45 AM 18.2°F-7.7°C 13.3°F-10.4°C 81% Calm Calm -- 30.37 in1028.4 mb - 0.00 in0.0 mm 0.00 in0.0 mm
07:50 AM 18.2°F-7.7°C 13.3°F-10.4°C 81% Calm Calm -- 30.37 in1028.4 mb - 0.00 in0.0 mm 0.00 in0.0 mm
07:55 AM 18.1°F-7.7°C 13.3°F-10.4°C 81% Calm Calm -- 30.37 in1028.4 mb - 0.00 in0.0 mm 0.00 in0.0 mm
08:00 AM 18.1°F-7.7°C 13.3°F-10.4°C 81% Calm Calm -- 30.37 in1028.4 mb - 0.00 in0.0 mm 0.00 in0.0 mm
08:05 AM 18.2°F-7.7°C 13.3°F-10.4°C 81% Calm Calm -- 30.37 in1028.4 mb - 0.00 in0.0 mm 0.00 in0.0 mm
08:10 AM 18.4°F-7.6°C 13.5°F-10.3°C 81% Calm Calm -- 30.37 in1028.4 mb - 0.00 in0.0 mm 0.00 in0.0 mm
08:15 AM 18.6°F-7.4°C 13.7°F-10.2°C 81% Calm Calm -- 30.37 in1028.4 mb - 0.00 in0.0 mm 0.00 in0.0 mm
08:20 AM 18.8°F-7.3°C 13.9°F-10.1°C 81% Calm Calm -- 30.37 in1028.4 mb - 0.00 in0.0 mm 0.00 in0.0 mm
08:25 AM 18.8°F-7.3°C 13.9°F-10.1°C 81% Calm Calm -- 30.37 in1028.4 mb - 0.00 in0.0 mm 0.00 in0.0 mm
08:30 AM 18.6°F-7.4°C 13.7°F-10.2°C 81% Calm Calm -- 30.37 in1028.4 mb - 0.00 in0.0 mm 0.00 in0.0 mm
08:35 AM 18.5°F-7.5°C 13.6°F-10.2°C 81% Calm Calm -- 30.36 in1028.1 mb - 0.00 in0.0 mm 0.00 in0.0 mm
08:40 AM 18.5°F-7.5°C 13.6°F-10.2°C 81% Calm Calm -- 30.37 in1028.4 mb - 0.00 in0.0 mm 0.00 in0.0 mm
08:45 AM 18.5°F-7.5°C 13.6°F-10.2°C 81% Calm Calm -- 30.37 in1028.4 mb - 0.00 in0.0 mm 0.00 in0.0 mm
08:50 AM 18.6°F-7.4°C 13.7°F-10.2°C 81% Calm Calm -- 30.37 in1028.4 mb - 0.00 in0.0 mm 0.00 in0.0 mm
08:55 AM 18.5°F-7.5°C 13.7°F-10.2°C 81% Calm Calm -- 30.36 in1028.1 mb - 0.00 in0.0 mm 0.00 in0.0 mm
09:00 AM 18.6°F-7.4°C 13.7°F-10.2°C 81% Calm Calm -- 30.36 in1028.1 mb - 0.00 in0.0 mm 0.00 in0.0 mm
09:05 AM 18.9°F-7.3°C 14.0°F-10.0°C 81% 1.2 mph N1.9 kmh N 2.3 mph3.7 kmh 30.36 in1028.1 mb - 0.00 in0.0 mm 0.00 in0.0 mm
09:10 AM 19.2°F-7.1°C 14.3°F-9.8°C 81% Calm Calm -- 30.36 in1028.1 mb - 0.00 in0.0 mm 0.00 in0.0 mm
09:15 AM 19.3°F-7.1°C 14.4°F-9.8°C 81% Calm Calm -- 30.36 in1028.1 mb - 0.00 in0.0 mm 0.00 in0.0 mm
09:20 AM 19.6°F-6.9°C 14.7°F-9.6°C 81% 1.2 mph N1.9 kmh N 2.3 mph3.7 kmh 30.36 in1028.1 mb - 0.00 in0.0 mm 0.00 in0.0 mm
09:25 AM 19.8°F-6.8°C 14.9°F-9.5°C 81% Calm Calm -- 30.36 in1028.1 mb - 0.00 in0.0 mm 0.00 in0.0 mm
09:30 AM 19.9°F-6.7°C 15.0°F-9.4°C 81% 1.2 mph N1.9 kmh N 2.3 mph3.7 kmh 30.36 in1028.1 mb - 0.00 in0.0 mm 0.00 in0.0 mm
09:35 AM 20.1°F-6.6°C 15.2°F-9.3°C 81% 1.2 mph N1.9 kmh N 2.3 mph3.7 kmh 30.36 in1028.1 mb - 0.00 in0.0 mm 0.00 in0.0 mm
09:40 AM 20.1°F-6.6°C 15.2°F-9.3°C 81% 1.2 mph N1.9 kmh N 3.5 mph5.6 kmh 30.36 in1028.1 mb - 0.00 in0.0 mm 0.00 in0.0 mm
09:45 AM 20.0°F-6.7°C 15.1°F-9.4°C 81% 2.3 mph N3.7 kmh N 3.5 mph5.6 kmh 30.36 in1028.1 mb - 0.00 in0.0 mm 0.00 in0.0 mm
09:50 AM 20.0°F-6.7°C 15.1°F-9.4°C 81% Calm Calm 1.2 mph1.9 kmh 30.36 in1028.1 mb - 0.00 in0.0 mm 0.00 in0.0 mm
09:55 AM 20.2°F-6.6°C 15.3°F-9.3°C 81% Calm Calm -- 30.36 in1028.1 mb - 0.00 in0.0 mm 0.00 in0.0 mm
10:00 AM 20.5°F-6.4°C 15.6°F-9.1°C 81% 2.3 mph N3.7 kmh N 2.3 mph3.7 kmh 30.36 in1028.1 mb - 0.00 in0.0 mm 0.00 in0.0 mm
10:05 AM 20.8°F-6.2°C 15.8°F-9.0°C 81% Calm Calm 1.2 mph1.9 kmh 30.36 in1028.1 mb - 0.00 in0.0 mm 0.00 in0.0 mm
10:10 AM 21.1°F-6.1°C 16.2°F-8.8°C 81% Calm Calm -- 30.36 in1028.1 mb - 0.00 in0.0 mm 0.00 in0.0 mm
10:15 AM 21.4°F-5.9°C 16.5°F-8.6°C 81% Calm Calm -- 30.36 in1028.1 mb - 0.00 in0.0 mm 0.00 in0.0 mm
10:20 AM 21.7°F-5.7°C 16.8°F-8.4°C 81% Calm Calm -- 30.35 in1027.8 mb - 0.00 in0.0 mm 0.00 in0.0 mm
10:25 AM 22.0°F-5.6°C 17.1°F-8.3°C 81% Calm Calm -- 30.35 in1027.8 mb - 0.00 in0.0 mm 0.00 in0.0 mm
10:30 AM 22.2°F-5.4°C 17.3°F-8.2°C 81% 1.2 mph SW1.9 kmh SW 2.3 mph3.7 kmh 30.35 in1027.8 mb - 0.00 in0.0 mm 0.00 in0.0 mm
10:35 AM 22.5°F-5.3°C 17.5°F-8.1°C 81% 1.2 mph SW1.9 kmh SW 2.3 mph3.7 kmh 30.35 in1027.8 mb - 0.00 in0.0 mm 0.00 in0.0 mm
10:40 AM 22.5°F-5.3°C 17.5°F-8.1°C 81% 2.3 mph WSW3.7 kmh WSW 3.5 mph5.6 kmh 30.35 in1027.8 mb - 0.00 in0.0 mm 0.00 in0.0 mm
10:45 AM 22.5°F-5.3°C 17.5°F-8.1°C 81% 1.2 mph WSW1.9 kmh WSW 2.3 mph3.7 kmh 30.34 in1027.4 mb - 0.00 in0.0 mm 0.00 in0.0 mm
10:50 AM 22.8°F-5.1°C 17.8°F-7.9°C 81% Calm Calm 1.2 mph1.9 kmh 30.34 in1027.4 mb - 0.00 in0.0 mm 0.00 in0.0 mm
10:55 AM 23.1°F-4.9°C 18.1°F-7.7°C 81% Calm Calm 1.2 mph1.9 kmh 30.34 in1027.4 mb - 0.00 in0.0 mm 0.00 in0.0 mm
11:00 AM 23.6°F-4.7°C 18.9°F-7.3°C 82% 1.2 mph WSW1.9 kmh WSW 1.2 mph1.9 kmh 30.34 in1027.4 mb - 0.00 in0.0 mm 0.00 in0.0 mm
11:05 AM 24.0°F-4.4°C 19.0°F-7.2°C 81% 1.2 mph WSW1.9 kmh WSW 3.5 mph5.6 kmh 30.33 in1027.1 mb - 0.00 in0.0 mm 0.00 in0.0 mm
11:10 AM 24.4°F-4.2°C 19.7°F-6.8°C 82% Calm Calm 2.3 mph3.7 kmh 30.33 in1027.1 mb - 0.00 in0.0 mm 0.00 in0.0 mm
11:15 AM 24.8°F-4.0°C 20.1°F-6.6°C 82% 2.3 mph WSW3.7 kmh WSW 3.5 mph5.6 kmh 30.33 in1027.1 mb - 0.00 in0.0 mm 0.00 in0.0 mm
11:20 AM 25.2°F-3.8°C 20.5°F-6.4°C 82% 1.2 mph WSW1.9 kmh WSW 2.3 mph3.7 kmh 30.33 in1027.1 mb - 0.00 in0.0 mm 0.00 in0.0 mm
11:25 AM 25.6°F-3.6°C 20.9°F-6.2°C 82% Calm Calm -- 30.32 in1026.8 mb - 0.00 in0.0 mm 0.00 in0.0 mm
11:30 AM 26.5°F-3.1°C 21.7°F-5.7°C 82% Calm Calm -- 30.32 in1026.8 mb - 0.00 in0.0 mm 0.00 in0.0 mm
11:35 AM 27.6°F-2.4°C 22.8°F-5.1°C 82% Calm Calm -- 30.32 in1026.8 mb - 0.00 in0.0 mm 0.00 in0.0 mm
11:40 AM 28.8°F-1.8°C 24.0°F-4.4°C 82% 4.6 mph ESE7.4 kmh ESE 9.2 mph14.8 kmh 30.32 in1026.8 mb - 0.00 in0.0 mm 0.00 in0.0 mm
11:45 AM 30.8°F-0.7°C 26.0°F-3.3°C 82% 5.8 mph E9.3 kmh E 10.4 mph16.7 kmh 30.31 in1026.4 mb - 0.00 in0.0 mm 0.00 in0.0 mm
11:50 AM 32.4°F0.2°C 27.6°F-2.4°C 82% 4.6 mph ESE7.4 kmh ESE 6.9 mph11.1 kmh 30.31 in1026.4 mb - 0.00 in0.0 mm 0.00 in0.0 mm
11:55 AM 33.5°F0.8°C 28.2°F-2.1°C 81% 5.8 mph E9.3 kmh E 9.2 mph14.8 kmh 30.30 in1026.1 mb - 0.00 in0.0 mm 0.00 in0.0 mm
12:00 PM 34.3°F1.3°C 28.2°F-2.1°C 78% 6.9 mph E11.1 kmh E 11.5 mph18.5 kmh 30.30 in1026.1 mb - 0.00 in0.0 mm 0.00 in0.0 mm
12:05 PM 34.9°F1.6°C 28.4°F-2.0°C 77% 6.9 mph E11.1 kmh E 9.2 mph14.8 kmh 30.30 in1026.1 mb - 0.00 in0.0 mm 0.00 in0.0 mm
12:10 PM 35.5°F1.9°C 29.0°F-1.7°C 77% 8.1 mph E13.0 kmh E 11.5 mph18.5 kmh 30.30 in1026.1 mb - 0.00 in0.0 mm 0.00 in0.0 mm
12:15 PM 35.8°F2.1°C 29.3°F-1.5°C 77% 6.9 mph E11.1 kmh E 9.2 mph14.8 kmh 30.30 in1026.1 mb - 0.00 in0.0 mm 0.00 in0.0 mm
12:20 PM 36.0°F2.2°C 29.5°F-1.4°C 77% 6.9 mph ESE11.1 kmh ESE 10.4 mph16.7 kmh 30.29 in1025.7 mb - 0.00 in0.0 mm 0.00 in0.0 mm
12:25 PM 36.1°F2.3°C 29.6°F-1.3°C 77% 5.8 mph ESE9.3 kmh ESE 9.2 mph14.8 kmh 30.29 in1025.7 mb - 0.00 in0.0 mm 0.00 in0.0 mm
12:30 PM 36.2°F2.3°C 29.7°F-1.3°C 77% 8.1 mph E13.0 kmh E 10.4 mph16.7 kmh 30.29 in1025.7 mb - 0.00 in0.0 mm 0.00 in0.0 mm
12:35 PM 36.3°F2.4°C 29.8°F-1.2°C 77% 8.1 mph E13.0 kmh E 11.5 mph18.5 kmh 30.28 in1025.4 mb - 0.00 in0.0 mm 0.00 in0.0 mm
12:40 PM 36.5°F2.5°C 29.6°F-1.3°C 76% 9.2 mph E14.8 kmh E 11.5 mph18.5 kmh 30.28 in1025.4 mb - 0.00 in0.0 mm 0.00 in0.0 mm
12:45 PM 36.6°F2.6°C 29.7°F-1.3°C 76% 9.2 mph E14.8 kmh E 15.0 mph24.1 kmh 30.28 in1025.4 mb - 0.00 in0.0 mm 0.00 in0.0 mm
12:50 PM 36.8°F2.7°C 29.6°F-1.3°C 75% 10.4 mph E16.7 kmh E 12.7 mph20.4 kmh 30.27 in1025.1 mb - 0.00 in0.0 mm 0.00 in0.0 mm
12:55 PM 36.9°F2.7°C 30.1°F-1.1°C 76% 5.8 mph E9.3 kmh E 11.5 mph18.5 kmh 30.27 in1025.1 mb - 0.00 in0.0 mm 0.00 in0.0 mm
01:00 PM 37.0°F2.8°C 30.1°F-1.1°C 76% 8.1 mph ESE13.0 kmh ESE 10.4 mph16.7 kmh 30.27 in1025.1 mb - 0.00 in0.0 mm 0.00 in0.0 mm
01:05 PM 37.0°F2.8°C 30.1°F-1.1°C 76% 6.9 mph E11.1 kmh E 11.5 mph18.5 kmh 30.27 in1025.1 mb - 0.00 in0.0 mm 0.00 in0.0 mm
01:10 PM 37.1°F2.8°C 29.9°F-1.2°C 75% 4.6 mph E7.4 kmh E 9.2 mph14.8 kmh 30.27 in1025.1 mb - 0.00 in0.0 mm 0.00 in0.0 mm
01:15 PM 37.3°F2.9°C 30.4°F-0.9°C 76% 9.2 mph E14.8 kmh E 11.5 mph18.5 kmh 30.27 in1025.1 mb - 0.00 in0.0 mm 0.00 in0.0 mm
01:20 PM 37.4°F3.0°C 30.2°F-1.0°C 75% 10.4 mph E16.7 kmh E 13.8 mph22.2 kmh 30.26 in1024.7 mb - 0.00 in0.0 mm 0.00 in0.0 mm
01:25 PM 37.3°F2.9°C 30.1°F-1.1°C 75% 10.4 mph E16.7 kmh E 12.7 mph20.4 kmh 30.26 in1024.7 mb - 0.01 in0.3 mm 0.01 in0.3 mm
01:30 PM 37.4°F3.0°C 30.2°F-1.0°C 75% 6.9 mph E11.1 kmh E 11.5 mph18.5 kmh 30.25 in1024.4 mb - 0.00 in0.0 mm 0.01 in0.3 mm
01:35 PM 37.3°F2.9°C 30.1°F-1.1°C 75% 6.9 mph E11.1 kmh E 11.5 mph18.5 kmh 30.25 in1024.4 mb - 0.00 in0.0 mm 0.01 in0.3 mm
01:40 PM 37.4°F3.0°C 30.2°F-1.0°C 75% 6.9 mph ESE11.1 kmh ESE 11.5 mph18.5 kmh 30.25 in1024.4 mb - 0.00 in0.0 mm 0.01 in0.3 mm
01:45 PM 37.3°F2.9°C 30.1°F-1.1°C 75% 6.9 mph E11.1 kmh E 9.2 mph14.8 kmh 30.25 in1024.4 mb - 0.00 in0.0 mm 0.01 in0.3 mm
01:50 PM 37.2°F2.9°C 30.0°F-1.1°C 75% 8.1 mph E13.0 kmh E 12.7 mph20.4 kmh 30.25 in1024.4 mb - 0.00 in0.0 mm 0.01 in0.3 mm
01:55 PM 37.1°F2.8°C 29.9°F-1.2°C 75% 6.9 mph ESE11.1 kmh ESE 10.4 mph16.7 kmh 30.24 in1024.0 mb - 0.00 in0.0 mm 0.01 in0.3 mm
02:00 PM 37.1°F2.8°C 30.2°F-1.0°C 76% 10.4 mph E16.7 kmh E 15.0 mph24.1 kmh 30.24 in1024.0 mb - 0.00 in0.0 mm 0.01 in0.3 mm
02:05 PM 37.1°F2.8°C 30.2°F-1.0°C 76% 9.2 mph E14.8 kmh E 11.5 mph18.5 kmh 30.24 in1024.0 mb - 0.00 in0.0 mm 0.01 in0.3 mm
02:10 PM 37.1°F2.8°C 29.9°F-1.2°C 75% 10.4 mph E16.7 kmh E 11.5 mph18.5 kmh 30.23 in1023.7 mb - 0.00 in0.0 mm 0.01 in0.3 mm
02:15 PM 37.1°F2.8°C 29.9°F-1.2°C 75% 9.2 mph E14.8 kmh E 15.0 mph24.1 kmh 30.23 in1023.7 mb - 0.00 in0.0 mm 0.01 in0.3 mm
02:20 PM 37.1°F2.8°C 30.2°F-1.0°C 76% 9.2 mph ESE14.8 kmh ESE 12.7 mph20.4 kmh 30.23 in1023.7 mb - 0.00 in0.0 mm 0.01 in0.3 mm
02:25 PM 37.1°F2.8°C 30.2°F-1.0°C 76% 10.4 mph E16.7 kmh E 16.1 mph25.9 kmh 30.23 in1023.7 mb - 0.00 in0.0 mm 0.01 in0.3 mm
02:30 PM 37.0°F2.8°C 30.2°F-1.0°C 76% 8.1 mph E13.0 kmh E 10.4 mph16.7 kmh 30.22 in1023.4 mb - 0.00 in0.0 mm 0.01 in0.3 mm
02:35 PM 37.0°F2.8°C 30.1°F-1.1°C 76% 6.9 mph E11.1 kmh E 10.4 mph16.7 kmh 30.22 in1023.4 mb - 0.01 in0.3 mm 0.02 in0.5 mm
02:40 PM 36.9°F2.7°C 30.0°F-1.1°C 76% 9.2 mph ESE14.8 kmh ESE 11.5 mph18.5 kmh 30.21 in1023.0 mb - 0.01 in0.3 mm 0.03 in0.8 mm
02:45 PM 36.7°F2.6°C 29.8°F-1.2°C 76% 9.2 mph E14.8 kmh E 15.0 mph24.1 kmh 30.21 in1023.0 mb - 0.01 in0.3 mm 0.03 in0.8 mm
02:50 PM 36.7°F2.6°C 29.8°F-1.2°C 76% 8.1 mph E13.0 kmh E 11.5 mph18.5 kmh 30.21 in1023.0 mb - 0.02 in0.5 mm 0.04 in1.0 mm
02:55 PM 36.6°F2.6°C 29.7°F-1.3°C 76% 9.2 mph E14.8 kmh E 11.5 mph18.5 kmh 30.20 in1022.7 mb - 0.01 in0.3 mm 0.04 in1.0 mm
03:00 PM 36.5°F2.5°C 29.7°F-1.3°C 76% 9.2 mph ESE14.8 kmh ESE 12.7 mph20.4 kmh 30.20 in1022.7 mb - 0.01 in0.3 mm 0.05 in1.3 mm
03:05 PM 36.5°F2.5°C 29.7°F-1.3°C 76% 6.9 mph E11.1 kmh E 11.5 mph18.5 kmh 30.20 in1022.7 mb - 0.01 in0.3 mm 0.06 in1.5 mm
03:10 PM 36.5°F2.5°C 29.7°F-1.3°C 76% 6.9 mph E11.1 kmh E 11.5 mph18.5 kmh 30.20 in1022.7 mb - 0.01 in0.3 mm 0.07 in1.8 mm
03:15 PM 36.4°F2.4°C 29.6°F-1.3°C 76% 6.9 mph E11.1 kmh E 11.5 mph18.5 kmh 30.20 in1022.7 mb - 0.01 in0.3 mm 0.07 in1.8 mm
03:20 PM 36.3°F2.4°C 29.5°F-1.4°C 76% 10.4 mph E16.7 kmh E 13.8 mph22.2 kmh 30.20 in1022.7 mb - 0.00 in0.0 mm 0.07 in1.8 mm
03:25 PM 36.4°F2.4°C 29.6°F-1.3°C 76% 10.4 mph E16.7 kmh E 13.8 mph22.2 kmh 30.20 in1022.7 mb - 0.00 in0.0 mm 0.07 in1.8 mm
03:30 PM 36.6°F2.6°C 29.7°F-1.3°C 76% 6.9 mph E11.1 kmh E 10.4 mph16.7 kmh 30.19 in1022.4 mb - 0.01 in0.3 mm 0.08 in2.0 mm
03:35 PM 36.4°F2.4°C 29.6°F-1.3°C 76% 8.1 mph E13.0 kmh E 11.5 mph18.5 kmh 30.19 in1022.4 mb - 0.00 in0.0 mm 0.08 in2.0 mm
03:40 PM 36.4°F2.4°C 29.6°F-1.3°C 76% 9.2 mph E14.8 kmh E 12.7 mph20.4 kmh 30.19 in1022.4 mb - 0.00 in0.0 mm 0.08 in2.0 mm
03:45 PM 36.5°F2.5°C 29.7°F-1.3°C 76% 6.9 mph ESE11.1 kmh ESE 11.5 mph18.5 kmh 30.19 in1022.4 mb - 0.00 in0.0 mm 0.08 in2.0 mm
03:50 PM 36.4°F2.4°C 29.6°F-1.3°C 76% 12.7 mph E20.4 kmh E 16.1 mph25.9 kmh 30.19 in1022.4 mb - 0.00 in0.0 mm 0.08 in2.0 mm
03:55 PM 36.5°F2.5°C 29.7°F-1.3°C 76% 9.2 mph E14.8 kmh E 11.5 mph18.5 kmh 30.18 in1022.0 mb - 0.00 in0.0 mm 0.08 in2.0 mm
04:00 PM 36.6°F2.6°C 29.7°F-1.3°C 76% 8.1 mph E13.0 kmh E 10.4 mph16.7 kmh 30.18 in1022.0 mb - 0.00 in0.0 mm 0.08 in2.0 mm
04:05 PM 36.4°F2.4°C 29.6°F-1.3°C 76% 9.2 mph E14.8 kmh E 11.5 mph18.5 kmh 30.18 in1022.0 mb - 0.00 in0.0 mm 0.08 in2.0 mm
04:10 PM 36.3°F2.4°C 29.5°F-1.4°C 76% 6.9 mph ESE11.1 kmh ESE 11.5 mph18.5 kmh 30.18 in1022.0 mb - 0.00 in0.0 mm 0.08 in2.0 mm
04:15 PM 36.0°F2.2°C 29.5°F-1.4°C 77% 8.1 mph E13.0 kmh E 11.5 mph18.5 kmh 30.18 in1022.0 mb - 0.00 in0.0 mm 0.08 in2.0 mm
04:20 PM 36.0°F2.2°C 29.1°F-1.6°C 76% 9.2 mph E14.8 kmh E 12.7 mph20.4 kmh 30.18 in1022.0 mb - 0.00 in0.0 mm 0.08 in2.0 mm
04:25 PM 36.0°F2.2°C 29.5°F-1.4°C 77% 5.8 mph ESE9.3 kmh ESE 8.1 mph13.0 kmh 30.18 in1022.0 mb - 0.00 in0.0 mm 0.08 in2.0 mm
04:30 PM 36.1°F2.3°C 29.3°F-1.5°C 76% 5.8 mph E9.3 kmh E 10.4 mph16.7 kmh 30.18 in1022.0 mb - 0.00 in0.0 mm 0.08 in2.0 mm
04:35 PM 36.1°F2.3°C 29.6°F-1.3°C 77% 9.2 mph E14.8 kmh E 13.8 mph22.2 kmh 30.18 in1022.0 mb - 0.00 in0.0 mm 0.08 in2.0 mm
04:40 PM 36.1°F2.3°C 29.3°F-1.5°C 76% 9.2 mph E14.8 kmh E 15.0 mph24.1 kmh 30.18 in1022.0 mb - 0.00 in0.0 mm 0.08 in2.0 mm
04:45 PM 36.2°F2.3°C 29.4°F-1.4°C 76% 9.2 mph E14.8 kmh E 11.5 mph18.5 kmh 30.18 in1022.0 mb - 0.00 in0.0 mm 0.08 in2.0 mm
04:50 PM 36.2°F2.3°C 29.4°F-1.4°C 76% 6.9 mph E11.1 kmh E 8.1 mph13.0 kmh 30.18 in1022.0 mb - 0.00 in0.0 mm 0.08 in2.0 mm
04:55 PM 36.1°F2.3°C 29.6°F-1.3°C 77% 6.9 mph E11.1 kmh E 10.4 mph16.7 kmh 30.18 in1022.0 mb - 0.00 in0.0 mm 0.08 in2.0 mm
05:00 PM 36.0°F2.2°C 29.5°F-1.4°C 77% 9.2 mph ESE14.8 kmh ESE 11.5 mph18.5 kmh 30.18 in1022.0 mb - 0.00 in0.0 mm 0.08 in2.0 mm
05:05 PM 36.0°F2.2°C 29.5°F-1.4°C 77% 10.4 mph E16.7 kmh E 13.8 mph22.2 kmh 30.17 in1021.7 mb - 0.00 in0.0 mm 0.08 in2.0 mm
05:10 PM 36.1°F2.3°C 29.6°F-1.3°C 77% 8.1 mph E13.0 kmh E 11.5 mph18.5 kmh 30.17 in1021.7 mb - 0.00 in0.0 mm 0.08 in2.0 mm
05:15 PM 36.1°F2.3°C 29.6°F-1.3°C 77% 8.1 mph E13.0 kmh E 12.7 mph20.4 kmh 30.17 in1021.7 mb - 0.00 in0.0 mm 0.08 in2.0 mm
05:20 PM 35.9°F2.2°C 29.4°F-1.4°C 77% 9.2 mph E14.8 kmh E 11.5 mph18.5 kmh 30.17 in1021.7 mb - 0.00 in0.0 mm 0.08 in2.0 mm
05:25 PM 35.7°F2.1°C 29.2°F-1.6°C 77% 8.1 mph E13.0 kmh E 9.2 mph14.8 kmh 30.17 in1021.7 mb - 0.00 in0.0 mm 0.08 in2.0 mm
05:30 PM 35.5°F1.9°C 29.0°F-1.7°C 77% 5.8 mph E9.3 kmh E 9.2 mph14.8 kmh 30.17 in1021.7 mb - 0.00 in0.0 mm 0.08 in2.0 mm
05:35 PM 35.7°F2.1°C 29.2°F-1.6°C 77% 8.1 mph E13.0 kmh E 11.5 mph18.5 kmh 30.16 in1021.3 mb - 0.00 in0.0 mm 0.08 in2.0 mm
05:40 PM 35.7°F2.1°C 29.2°F-1.6°C 77% 8.1 mph E13.0 kmh E 10.4 mph16.7 kmh 30.16 in1021.3 mb - 0.00 in0.0 mm 0.08 in2.0 mm
05:45 PM 35.7°F2.1°C 29.2°F-1.6°C 77% 10.4 mph E16.7 kmh E 12.7 mph20.4 kmh 30.15 in1021.0 mb - 0.00 in0.0 mm 0.08 in2.0 mm
05:50 PM 35.9°F2.2°C 29.4°F-1.4°C 77% 9.2 mph ESE14.8 kmh ESE 12.7 mph20.4 kmh 30.15 in1021.0 mb - 0.00 in0.0 mm 0.08 in2.0 mm
05:55 PM 35.9°F2.2°C 29.4°F-1.4°C 77% 9.2 mph E14.8 kmh E 10.4 mph16.7 kmh 30.15 in1021.0 mb - 0.00 in0.0 mm 0.08 in2.0 mm
06:00 PM 35.9°F2.2°C 29.4°F-1.4°C 77% 11.5 mph E18.5 kmh E 13.8 mph22.2 kmh 30.15 in1021.0 mb - 0.00 in0.0 mm 0.08 in2.0 mm
06:05 PM 35.9°F2.2°C 29.4°F-1.4°C 77% 8.1 mph E13.0 kmh E 11.5 mph18.5 kmh 30.15 in1021.0 mb - 0.00 in0.0 mm 0.08 in2.0 mm
06:10 PM 35.8°F2.1°C 29.3°F-1.5°C 77% 8.1 mph E13.0 kmh E 11.5 mph18.5 kmh 30.15 in1021.0 mb - 0.00 in0.0 mm 0.08 in2.0 mm
06:15 PM 35.9°F2.2°C 29.4°F-1.4°C 77% 5.8 mph E9.3 kmh E 9.2 mph14.8 kmh 30.14 in1020.7 mb - 0.00 in0.0 mm 0.08 in2.0 mm
06:20 PM 35.9°F2.2°C 29.1°F-1.6°C 76% 9.2 mph E14.8 kmh E 13.8 mph22.2 kmh 30.14 in1020.7 mb - 0.00 in0.0 mm 0.08 in2.0 mm
06:25 PM 36.1°F2.3°C 29.3°F-1.5°C 76% 8.1 mph E13.0 kmh E 11.5 mph18.5 kmh 30.14 in1020.7 mb - 0.00 in0.0 mm 0.08 in2.0 mm
06:30 PM 36.2°F2.3°C 29.3°F-1.5°C 76% 9.2 mph ESE14.8 kmh ESE 12.7 mph20.4 kmh 30.14 in1020.7 mb - 0.00 in0.0 mm 0.08 in2.0 mm
06:35 PM 36.2°F2.3°C 29.4°F-1.4°C 76% 8.1 mph ESE13.0 kmh ESE 11.5 mph18.5 kmh 30.13 in1020.3 mb - 0.00 in0.0 mm 0.08 in2.0 mm
06:40 PM 36.1°F2.3°C 29.3°F-1.5°C 76% 9.2 mph E14.8 kmh E 13.8 mph22.2 kmh 30.13 in1020.3 mb - 0.00 in0.0 mm 0.08 in2.0 mm
06:45 PM 36.2°F2.3°C 29.4°F-1.4°C 76% 9.2 mph E14.8 kmh E 11.5 mph18.5 kmh 30.13 in1020.3 mb - 0.00 in0.0 mm 0.08 in2.0 mm
06:50 PM 36.4°F2.4°C 29.6°F-1.3°C 76% 9.2 mph E14.8 kmh E 16.1 mph25.9 kmh 30.13 in1020.3 mb - 0.00 in0.0 mm 0.08 in2.0 mm
06:55 PM 36.5°F2.5°C 29.7°F-1.3°C 76% 6.9 mph E11.1 kmh E 10.4 mph16.7 kmh 30.12 in1020.0 mb - 0.00 in0.0 mm 0.08 in2.0 mm
07:00 PM 36.6°F2.6°C 29.7°F-1.3°C 76% 8.1 mph E13.0 kmh E 10.4 mph16.7 kmh 30.12 in1020.0 mb - 0.00 in0.0 mm 0.08 in2.0 mm
07:05 PM 36.4°F2.4°C 29.6°F-1.3°C 76% 8.1 mph E13.0 kmh E 12.7 mph20.4 kmh 30.12 in1020.0 mb - 0.00 in0.0 mm 0.08 in2.0 mm
07:10 PM 36.3°F2.4°C 29.5°F-1.4°C 76% 8.1 mph E13.0 kmh E 11.5 mph18.5 kmh 30.11 in1019.6 mb - 0.00 in0.0 mm 0.08 in2.0 mm
07:15 PM 36.3°F2.4°C 29.5°F-1.4°C 76% 9.2 mph E14.8 kmh E 11.5 mph18.5 kmh 30.11 in1019.6 mb - 0.00 in0.0 mm 0.08 in2.0 mm
07:20 PM 36.4°F2.4°C 29.6°F-1.3°C 76% 6.9 mph E11.1 kmh E 10.4 mph16.7 kmh 30.11 in1019.6 mb - 0.00 in0.0 mm 0.08 in2.0 mm
07:25 PM 36.4°F2.4°C 29.6°F-1.3°C 76% 6.9 mph ESE11.1 kmh ESE 9.2 mph14.8 kmh 30.11 in1019.6 mb - 0.00 in0.0 mm 0.08 in2.0 mm
07:30 PM 36.1°F2.3°C 29.3°F-1.5°C 76% 10.4 mph ESE16.7 kmh ESE 12.7 mph20.4 kmh 30.11 in1019.6 mb - 0.00 in0.0 mm 0.08 in2.0 mm
07:35 PM 36.1°F2.3°C 29.3°F-1.5°C 76% 9.2 mph E14.8 kmh E 12.7 mph20.4 kmh 30.10 in1019.3 mb - 0.00 in0.0 mm 0.08 in2.0 mm
07:40 PM 36.4°F2.4°C 29.5°F-1.4°C 76% 8.1 mph E13.0 kmh E 10.4 mph16.7 kmh 30.10 in1019.3 mb - 0.00 in0.0 mm 0.08 in2.0 mm
07:45 PM 36.4°F2.4°C 29.6°F-1.3°C 76% 8.1 mph ESE13.0 kmh ESE 10.4 mph16.7 kmh 30.10 in1019.3 mb - 0.00 in0.0 mm 0.08 in2.0 mm
07:50 PM 36.3°F2.4°C 29.5°F-1.4°C 76% 6.9 mph E11.1 kmh E 9.2 mph14.8 kmh 30.10 in1019.3 mb - 0.00 in0.0 mm 0.08 in2.0 mm
07:55 PM 36.2°F2.3°C 29.4°F-1.4°C 76% 11.5 mph E18.5 kmh E 17.3 mph27.8 kmh 30.10 in1019.3 mb - 0.00 in0.0 mm 0.08 in2.0 mm
08:00 PM 36.6°F2.6°C 29.7°F-1.3°C 76% 8.1 mph ESE13.0 kmh ESE 11.5 mph18.5 kmh 30.10 in1019.3 mb - 0.00 in0.0 mm 0.08 in2.0 mm
08:05 PM 36.6°F2.6°C 29.7°F-1.3°C 76% 10.4 mph E16.7 kmh E 12.7 mph20.4 kmh 30.09 in1019.0 mb - 0.00 in0.0 mm 0.08 in2.0 mm
08:10 PM 36.6°F2.6°C 29.7°F-1.3°C 76% 10.4 mph E16.7 kmh E 15.0 mph24.1 kmh 30.09 in1019.0 mb - 0.00 in0.0 mm 0.08 in2.0 mm
08:15 PM 36.9°F2.7°C 30.0°F-1.1°C 76% 10.4 mph E16.7 kmh E 17.3 mph27.8 kmh 30.09 in1019.0 mb - 0.00 in0.0 mm 0.08 in2.0 mm
08:20 PM 37.1°F2.8°C 30.2°F-1.0°C 76% 9.2 mph E14.8 kmh E 11.5 mph18.5 kmh 30.09 in1019.0 mb - 0.00 in0.0 mm 0.08 in2.0 mm
08:25 PM 37.0°F2.8°C 30.1°F-1.1°C 76% 10.4 mph E16.7 kmh E 17.3 mph27.8 kmh 30.08 in1018.6 mb - 0.00 in0.0 mm 0.08 in2.0 mm
08:30 PM 37.2°F2.9°C 30.3°F-0.9°C 76% 8.1 mph E13.0 kmh E 11.5 mph18.5 kmh 30.08 in1018.6 mb - 0.00 in0.0 mm 0.08 in2.0 mm
08:35 PM 37.2°F2.9°C 30.3°F-0.9°C 76% 10.4 mph E16.7 kmh E 16.1 mph25.9 kmh 30.08 in1018.6 mb - 0.00 in0.0 mm 0.08 in2.0 mm
08:40 PM 37.3°F2.9°C 30.4°F-0.9°C 76% 9.2 mph E14.8 kmh E 13.8 mph22.2 kmh 30.08 in1018.6 mb - 0.00 in0.0 mm 0.08 in2.0 mm
08:45 PM 37.4°F3.0°C 30.2°F-1.0°C 75% 11.5 mph E18.5 kmh E 19.6 mph31.5 kmh 30.08 in1018.6 mb - 0.00 in0.0 mm 0.08 in2.0 mm
08:50 PM 37.5°F3.1°C 30.3°F-0.9°C 75% 12.7 mph E20.4 kmh E 15.0 mph24.1 kmh 30.07 in1018.3 mb - 0.00 in0.0 mm 0.08 in2.0 mm
08:55 PM 37.6°F3.1°C 30.4°F-0.9°C 75% 10.4 mph E16.7 kmh E 13.8 mph22.2 kmh 30.07 in1018.3 mb - 0.00 in0.0 mm 0.08 in2.0 mm
09:00 PM 37.5°F3.1°C 30.3°F-0.9°C 75% 9.2 mph E14.8 kmh E 15.0 mph24.1 kmh 30.06 in1017.9 mb - 0.00 in0.0 mm 0.08 in2.0 mm
09:05 PM 37.3°F2.9°C 30.4°F-0.9°C 76% 10.4 mph E16.7 kmh E 13.8 mph22.2 kmh 30.06 in1017.9 mb - 0.00 in0.0 mm 0.08 in2.0 mm
09:10 PM 37.3°F2.9°C 30.4°F-0.9°C 76% 10.4 mph E16.7 kmh E 13.8 mph22.2 kmh 30.06 in1017.9 mb - 0.00 in0.0 mm 0.08 in2.0 mm
09:15 PM 37.4°F3.0°C 30.5°F-0.8°C 76% 5.8 mph E9.3 kmh E 11.5 mph18.5 kmh 30.06 in1017.9 mb - 0.00 in0.0 mm 0.08 in2.0 mm
09:20 PM 37.4°F3.0°C 30.5°F-0.8°C 76% 8.1 mph E13.0 kmh E 12.7 mph20.4 kmh 30.06 in1017.9 mb - 0.00 in0.0 mm 0.08 in2.0 mm
09:25 PM 37.4°F3.0°C 30.5°F-0.8°C 76% 6.9 mph E11.1 kmh E 10.4 mph16.7 kmh 30.06 in1017.9 mb - 0.00 in0.0 mm 0.08 in2.0 mm
09:30 PM 37.3°F2.9°C 30.4°F-0.9°C 76% 8.1 mph E13.0 kmh E 11.5 mph18.5 kmh 30.06 in1017.9 mb - 0.00 in0.0 mm 0.08 in2.0 mm
09:35 PM 37.1°F2.8°C 30.2°F-1.0°C 76% 8.1 mph ESE13.0 kmh ESE 11.5 mph18.5 kmh 30.05 in1017.6 mb - 0.00 in0.0 mm 0.08 in2.0 mm
09:40 PM 37.0°F2.8°C 30.1°F-1.1°C 76% 5.8 mph E9.3 kmh E 11.5 mph18.5 kmh 30.05 in1017.6 mb - 0.00 in0.0 mm 0.08 in2.0 mm
09:45 PM 36.9°F2.7°C 30.4°F-0.9°C 77% 6.9 mph ESE11.1 kmh ESE 8.1 mph13.0 kmh 30.04 in1017.3 mb - 0.00 in0.0 mm 0.08 in2.0 mm
09:50 PM 36.8°F2.7°C 29.9°F-1.2°C 76% 8.1 mph E13.0 kmh E 11.5 mph18.5 kmh 30.04 in1017.3 mb - 0.00 in0.0 mm 0.08 in2.0 mm
09:55 PM 37.0°F2.8°C 30.4°F-0.9°C 77% 11.5 mph E18.5 kmh E 15.0 mph24.1 kmh 30.04 in1017.3 mb - 0.00 in0.0 mm 0.08 in2.0 mm
10:00 PM 37.2°F2.9°C 30.3°F-0.9°C 76% 9.2 mph E14.8 kmh E 13.8 mph22.2 kmh 30.03 in1016.9 mb - 0.00 in0.0 mm 0.08 in2.0 mm
10:05 PM 37.3°F2.9°C 30.4°F-0.9°C 76% 10.4 mph E16.7 kmh E 16.1 mph25.9 kmh 30.03 in1016.9 mb - 0.00 in0.0 mm 0.08 in2.0 mm
10:10 PM 37.5°F3.1°C 30.6°F-0.8°C 76% 8.1 mph ESE13.0 kmh ESE 12.7 mph20.4 kmh 30.02 in1016.6 mb - 0.00 in0.0 mm 0.08 in2.0 mm
10:15 PM 37.6°F3.1°C 30.7°F-0.7°C 76% 8.1 mph E13.0 kmh E 13.8 mph22.2 kmh 30.02 in1016.6 mb - 0.00 in0.0 mm 0.08 in2.0 mm
10:20 PM 37.7°F3.2°C 30.8°F-0.7°C 76% 10.4 mph E16.7 kmh E 12.7 mph20.4 kmh 30.02 in1016.6 mb - 0.00 in0.0 mm 0.08 in2.0 mm
10:25 PM 37.8°F3.2°C 30.9°F-0.6°C 76% 9.2 mph E14.8 kmh E 11.5 mph18.5 kmh 30.02 in1016.6 mb - 0.00 in0.0 mm 0.08 in2.0 mm
10:30 PM 37.7°F3.2°C 30.8°F-0.7°C 76% 8.1 mph E13.0 kmh E 12.7 mph20.4 kmh 30.01 in1016.3 mb - 0.00 in0.0 mm 0.08 in2.0 mm
10:35 PM 37.8°F3.2°C 30.9°F-0.6°C 76% 9.2 mph E14.8 kmh E 12.7 mph20.4 kmh 30.01 in1016.3 mb - 0.00 in0.0 mm 0.08 in2.0 mm
10:40 PM 38.0°F3.3°C 31.1°F-0.5°C 76% 10.4 mph E16.7 kmh E 13.8 mph22.2 kmh 30.00 in1015.9 mb - 0.00 in0.0 mm 0.08 in2.0 mm
10:45 PM 38.1°F3.4°C 31.2°F-0.4°C 76% 11.5 mph E18.5 kmh E 15.0 mph24.1 kmh 30.00 in1015.9 mb - 0.00 in0.0 mm 0.08 in2.0 mm
10:50 PM 38.1°F3.4°C 31.2°F-0.4°C 76% 9.2 mph ESE14.8 kmh ESE 11.5 mph18.5 kmh 30.00 in1015.9 mb - 0.00 in0.0 mm 0.08 in2.0 mm
10:55 PM 38.1°F3.4°C 31.2°F-0.4°C 76% 8.1 mph E13.0 kmh E 12.7 mph20.4 kmh 30.00 in1015.9 mb - 0.00 in0.0 mm 0.08 in2.0 mm
11:00 PM 38.2°F3.4°C 31.3°F-0.4°C 76% 9.2 mph E14.8 kmh E 11.5 mph18.5 kmh 30.00 in1015.9 mb - 0.00 in0.0 mm 0.08 in2.0 mm
11:05 PM 38.3°F3.5°C 31.4°F-0.3°C 76% 12.7 mph E20.4 kmh E 16.1 mph25.9 kmh 30.00 in1015.9 mb - 0.00 in0.0 mm 0.08 in2.0 mm
11:10 PM 38.5°F3.6°C 31.6°F-0.2°C 76% 12.7 mph E20.4 kmh E 17.3 mph27.8 kmh 29.99 in1015.6 mb - 0.00 in0.0 mm 0.08 in2.0 mm
11:15 PM 38.5°F3.6°C 31.6°F-0.2°C 76% 9.2 mph E14.8 kmh E 11.5 mph18.5 kmh 29.99 in1015.6 mb - 0.00 in0.0 mm 0.08 in2.0 mm
11:20 PM 38.4°F3.6°C 31.5°F-0.3°C 76% 10.4 mph E16.7 kmh E 17.3 mph27.8 kmh 29.99 in1015.6 mb - 0.00 in0.0 mm 0.08 in2.0 mm
11:25 PM 38.4°F3.6°C 31.5°F-0.3°C 76% 11.5 mph E18.5 kmh E 13.8 mph22.2 kmh 29.99 in1015.6 mb - 0.00 in0.0 mm 0.08 in2.0 mm
11:30 PM 38.4°F3.6°C 31.5°F-0.3°C 76% 9.2 mph E14.8 kmh E 13.8 mph22.2 kmh 29.99 in1015.6 mb - 0.00 in0.0 mm 0.08 in2.0 mm
11:35 PM 38.3°F3.5°C 31.4°F-0.3°C 76% 10.4 mph E16.7 kmh E 15.0 mph24.1 kmh 29.98 in1015.2 mb - 0.00 in0.0 mm 0.08 in2.0 mm
11:40 PM 38.4°F3.6°C 31.5°F-0.3°C 76% 10.4 mph E16.7 kmh E 17.3 mph27.8 kmh 29.98 in1015.2 mb - 0.00 in0.0 mm 0.08 in2.0 mm
11:45 PM 38.4°F3.6°C 31.5°F-0.3°C 76% 5.8 mph SE9.3 kmh SE 12.7 mph20.4 kmh 29.98 in1015.2 mb - 0.00 in0.0 mm 0.08 in2.0 mm
11:50 PM 38.4°F3.6°C 31.5°F-0.3°C 76% 10.4 mph E16.7 kmh E 11.5 mph18.5 kmh 29.98 in1015.2 mb - 0.00 in0.0 mm 0.08 in2.0 mm
11:55 PM 38.7°F3.7°C 31.8°F-0.1°C 76% 11.5 mph E18.5 kmh E 15.0 mph24.1 kmh 29.98 in1015.2 mb - 0.00 in0.0 mm 0.08 in2.0 mm